PDT,Max TemperatureF,Mean TemperatureF,Min TemperatureF,Max Dew PointF,MeanDew PointF,Min DewpointF,Max Humidity, Mean Humidity, Min Humidity, Max Sea Level PressureIn, Mean Sea Level PressureIn, Min Sea Level PressureIn, Max VisibilityMiles, Mean VisibilityMiles, Min VisibilityMiles, Max Wind SpeedMPH, Mean Wind SpeedMPH, Max Gust SpeedMPH,PrecipitationIn, CloudCover, Events, WindDirDegrees
2013-3-1,79,58,36,45,39,34,85,53,21,30.42,30.31,30.21,10,10,10,14,5,20,0.00,0,,86
2013-3-2,80,59,37,41,35,23,89,51,13,30.25,30.17,30.08,10,10,9,17,4,21,T,1,Rain,210
2013-3-3,73,60,47,46,42,37,93,61,29,30.10,30.05,29.99,10,10,10,20,6,18,T,4,,316
2013-3-4,72,58,43,46,42,36,93,60,27,30.15,30.08,29.99,10,10,10,14,5,,0.00,4,,1
2013-3-5,61,51,41,45,41,35,89,64,39,30.09,30.05,29.99,10,10,10,18,9,23,0.00,5,,219
2013-3-6,58,50,42,50,44,39,93,78,62,30.10,30.05,30.01,10,9,2,14,7,20,0.13,6,Rain,200
2013-3-7,58,49,39,44,41,38,93,78,63,30.01,29.90,29.83,10,10,7,17,5,,0.27,7,Rain,196
2013-3-8,53,47,40,45,42,36,96,84,71,30.09,29.92,29.79,10,10,10,20,6,24,0.02,7,Rain,301
2013-3-9,62,50,37,43,39,35,92,71,49,30.31,30.22,30.10,10,10,10,15,5,28,0.00,2,,146
2013-3-10,71,52,32,42,36,29,100,61,22,30.36,30.29,30.21,10,8,0,13,3,,0.00,0,Fog,49
2013-3-11,77,55,33,42,37,33,92,58,23,30.26,30.17,30.07,10,10,8,13,4,15,0.00,0,,75
2013-3-12,82,60,38,45,40,35,86,53,20,30.15,30.10,30.02,10,10,10,12,4,17,0.00,0,,54
2013-3-13,87,63,39,48,41,32,93,55,16,30.17,30.11,30.03,10,10,7,14,3,,0.00,0,,252
2013-3-14,85,63,41,47,43,38,89,55,20,30.13,30.09,30.03,10,10,10,16,4,20,0.00,0,,276
2013-3-15,85,65,44,46,41,31,86,57,27,30.09,30.04,29.96,10,10,10,18,6,25,0.00,0,,323
2013-3-16,82,64,46,46,43,36,93,57,20,30.08,30.03,29.95,10,7,0,23,9,23,0.00,3,Fog,336
2013-3-17,77,57,37,41,38,28,92,55,18,30.10,30.04,29.97,10,10,10,21,7,25,0.00,0,,340
2013-3-18,74,54,34,44,37,32,92,58,23,30.11,30.06,30.00,10,10,10,17,3,30,T,0,,282
2013-3-19,79,60,40,43,38,30,82,51,20,30.14,30.09,30.03,10,10,10,25,5,31,T,2,Rain,294
2013-3-20,71,59,47,50,44,41,89,64,39,30.12,30.08,30.04,10,10,10,18,5,28,0.00,3,,281
2013-3-21,74,61,47,52,45,33,93,59,25,30.08,30.01,29.91,10,10,10,20,9,24,0.00,4,,328
2013-3-22,76,56,35,40,29,14,92,51,10,30.04,29.99,29.93,10,10,10,18,6,24,0.00,0,,356
2013-3-23,75,52,29,32,22,17,69,41,12,30.11,30.05,29.98,10,10,10,15,3,21,0.00,0,,42
2013-3-24,80,57,34,39,30,22,75,43,11,30.09,30.02,29.91,10,10,10,14,3,,0.00,0,,348
2013-3-25,80,59,37,40,36,20,79,45,11,30.01,29.96,29.87,10,10,10,17,6,26,0.00,0,,312
2013-3-26,76,59,41,45,39,23,89,52,15,30.00,29.95,29.87,10,10,10,15,6,,0.00,2,,277
2013-3-27,76,59,42,49,44,39,89,63,36,30.04,29.98,29.93,10,10,10,18,6,23,0.00,2,,207
2013-3-28,72,58,43,51,47,43,100,72,44,30.09,30.04,30.01,10,6,0,21,4,25,T,3,Fog,183
2013-3-29,78,60,41,49,44,39,100,67,33,30.11,30.07,30.02,10,8,0,16,5,24,0.00,2,Fog,202
2013-3-30,73,61,48,53,48,39,93,62,31,30.09,30.05,30.02,10,10,10,18,8,26,T,4,,214
2013-3-31,70,59,47,54,50,41,100,68,36,30.10,30.07,30.02,10,10,6,21,6,24,0.02,5,Rain,223